Time;durP1;ratioP1;P1;durP2;ratioP2;P2;SDS_P1;SDS_P2;PMS_P1;PMS_P2;Temp;Humidity;BMP_temperature;BMP_pressure;BME280_temperature;BME280_humidity;BME280_pressure;Samples;Min_cycle;Max_cycle;Signal;HPM_P1;HPM_P2
2022/12/01 00:03:10;;;;;;;5.03;2.47;;;;;;;17.23;57.23;96934.41;10479432;28;20638;-29
2022/12/01 00:08:10;;;;;;;2.47;2.00;;;;;;;17.22;57.04;96931.03;10476554;28;20384;-29
2022/12/01 00:13:11;;;;;;;3.42;2.22;;;;;;;17.21;57.08;96923.41;10485612;28;20676;-29
2022/12/01 00:18:11;;;;;;;2.77;2.23;;;;;;;17.25;57.11;96937.81;10476349;28;20039;-31
2022/12/01 00:23:12;;;;;;;8.52;2.20;;;;;;;17.25;57.88;96933.56;10473559;28;20123;-29
2022/12/01 00:28:13;;;;;;;2.63;1.83;;;;;;;17.27;56.90;96938.66;10480456;28;20037;-30
2022/12/01 00:33:13;;;;;;;2.60;2.00;;;;;;;17.22;56.96;96938.63;10482609;28;20033;-28
2022/12/01 00:38:13;;;;;;;2.53;1.83;;;;;;;17.18;56.88;96936.06;10474866;28;20021;-28
2022/12/01 00:43:14;;;;;;;3.35;1.75;;;;;;;17.14;57.30;96924.22;10474532;28;20071;-29
2022/12/01 00:48:14;;;;;;;3.63;2.20;;;;;;;17.15;57.29;96923.38;10480787;28;20044;-29
2022/12/01 00:53:15;;;;;;;2.03;1.63;;;;;;;17.16;56.82;96928.44;10469616;28;20043;-29
2022/12/01 00:58:15;;;;;;;3.53;1.90;;;;;;;17.17;56.95;96924.25;10476796;28;20032;-29
2022/12/01 01:03:16;;;;;;;2.15;1.70;;;;;;;17.14;57.04;96926.75;10477535;28;20032;-29
2022/12/01 01:08:16;;;;;;;2.23;1.73;;;;;;;17.15;57.13;96926.75;10468850;28;20041;-28
2022/12/01 01:13:17;;;;;;;3.17;1.80;;;;;;;17.16;57.00;96922.56;10484917;28;20698;-29
2022/12/01 01:18:17;;;;;;;2.30;1.60;;;;;;;17.09;57.04;96910.69;10472823;28;20551;-29
2022/12/01 01:23:17;;;;;;;3.37;1.43;;;;;;;17.14;56.78;96927.59;10472061;28;20063;-29
2022/12/01 01:28:18;;;;;;;1.53;1.43;;;;;;;17.21;56.62;96925.94;10477986;28;20051;-30
2022/12/01 01:33:19;;;;;;;4.13;2.00;;;;;;;17.23;56.96;96929.38;10477762;28;20065;-33
2022/12/01 01:38:19;;;;;;;2.03;1.47;;;;;;;17.26;56.46;96934.44;10478929;28;20108;-28
2022/12/01 01:43:43;;;;;;;3.30;1.43;;;;;;;17.21;56.55;96931.00;10474770;28;20066;-29
2022/12/01 01:48:54;;;;;;;2.83;1.70;;;;;;;17.13;56.65;96925.03;10477320;28;20072;-29
2022/12/01 01:54:00;;;;;;;3.17;1.95;;;;;;;17.12;56.77;96933.47;10472514;28;20036;-29
2022/12/01 01:59:00;;;;;;;2.57;1.77;;;;;;;17.17;56.58;96929.31;10488317;28;20078;-29
2022/12/01 02:04:02;;;;;;;2.17;1.67;;;;;;;17.17;56.52;96935.19;10479801;28;20131;-29
2022/12/01 02:09:02;;;;;;;2.20;1.50;;;;;;;17.10;56.59;96925.88;10487646;28;20463;-29
2022/12/01 02:14:45;;;;;;;1.73;1.45;;;;;;;17.15;56.59;96930.97;10488597;28;20032;-29
2022/12/01 02:20:12;;;;;;;4.00;1.48;;;;;;;17.16;56.18;96927.63;10475121;28;20123;-29
2022/12/01 02:25:25;;;;;;;3.53;2.10;;;;;;;17.12;56.49;96925.88;10484580;28;20471;-28
2022/12/01 02:31:03;;;;;;;1.80;1.42;;;;;;;17.15;56.73;96920.84;10480321;28;20044;-29
2022/12/01 02:36:33;;;;;;;2.03;1.83;;;;;;;17.18;56.40;96918.34;10487712;28;20543;-29
2022/12/01 02:41:47;;;;;;;2.42;2.13;;;;;;;17.20;56.64;96916.66;10474415;28;20550;-30
2022/12/01 02:46:56;;;;;;;2.13;1.48;;;;;;;17.19;56.56;96909.91;10482179;28;20508;-29
2022/12/01 02:51:57;;;;;;;2.15;1.40;;;;;;;17.10;56.42;96909.84;10475283;28;20470;-29
2022/12/01 02:56:58;;;;;;;2.75;1.80;;;;;;;17.16;56.22;96915.78;10488986;28;20032;-29
2022/12/01 03:02:23;;;;;;;1.75;1.55;;;;;;;17.13;56.32;96917.44;10476658;28;20516;-30
2022/12/01 03:07:41;;;;;;;1.60;1.42;;;;;;;17.13;56.26;96922.50;10483989;28;20045;-29
2022/12/01 03:13:00;;;;;;;1.80;1.50;;;;;;;17.12;56.15;96920.81;10482980;28;20056;-29
2022/12/01 03:18:06;;;;;;;2.33;1.60;;;;;;;17.09;56.02;96916.56;10478357;28;20147;-29
2022/12/01 03:23:11;;;;;;;2.58;1.40;;;;;;;17.11;56.17;96916.59;10480043;28;20064;-30
2022/12/01 03:28:16;;;;;;;1.40;1.20;;;;;;;17.13;56.08;96914.91;10481290;28;20044;-28
2022/12/01 03:33:23;;;;;;;3.05;1.50;;;;;;;17.13;56.26;96912.38;10478962;28;20536;-29
2022/12/01 03:38:25;;;;;;;2.05;1.50;;;;;;;17.11;55.98;96914.06;10480014;28;20426;-29
2022/12/01 03:43:33;;;;;;;1.75;1.63;;;;;;;17.13;55.88;96913.25;10485986;28;20040;-30
2022/12/01 03:48:33;;;;;;;1.75;1.65;;;;;;;17.18;56.33;96911.63;10472633;28;20279;-30
2022/12/01 03:53:57;;;;;;;1.85;1.40;;;;;;;17.17;55.89;96909.06;10485353;28;20488;-30
2022/12/01 03:59:01;;;;;;;1.85;1.67;;;;;;;17.15;56.03;96906.50;10476036;28;20497;-29
2022/12/01 04:04:11;;;;;;;2.47;1.60;;;;;;;17.16;55.95;96912.44;10477978;28;20036;-30
2022/12/01 04:09:11;;;;;;;1.42;1.17;;;;;;;17.12;56.00;96915.75;10484403;28;20052;-29
2022/12/01 04:14:12;;;;;;;3.25;1.70;;;;;;;17.11;55.66;96919.97;10470517;28;20119;-29
2022/12/01 04:19:12;;;;;;;2.00;1.53;;;;;;;17.11;55.87;96924.19;10481187;28;20511;-28
2022/12/01 04:24:13;;;;;;;2.20;1.73;;;;;;;17.09;56.12;96930.91;10467278;28;20282;-29
2022/12/01 04:29:13;;;;;;;2.13;1.55;;;;;;;17.07;55.61;96917.41;10487122;28;20043;-28
2022/12/01 04:34:14;;;;;;;2.20;1.77;;;;;;;17.07;55.75;96922.47;10495451;28;20031;-29
2022/12/01 04:39:14;;;;;;;1.95;1.55;;;;;;;17.13;54.92;96925.03;10478723;28;20048;-29
2022/12/01 04:44:15;;;;;;;2.13;1.93;;;;;;;16.95;54.80;96902.13;10474468;28;20041;-30
2022/12/01 04:49:16;;;;;;;3.60;1.50;;;;;;;17.16;54.29;96933.50;10481976;28;20283;-29
2022/12/01 04:54:17;;;;;;;6.28;1.80;;;;;;;17.25;54.51;96932.75;10482836;28;20454;-29
2022/12/01 04:59:17;;;;;;;2.50;1.80;;;;;;;17.28;54.38;96922.63;10479061;28;20037;-29
2022/12/01 05:04:18;;;;;;;2.58;1.50;;;;;;;17.29;54.54;96927.72;10479154;28;20036;-29
2022/12/01 05:09:20;;;;;;;2.10;1.90;;;;;;;17.31;54.09;96938.69;10488894;28;20098;-29
2022/12/01 05:14:20;;;;;;;3.55;1.55;;;;;;;17.31;53.69;96933.63;10490018;28;20408;-29
2022/12/01 05:24:39;;;;;;;2.42;1.48;;;;;;;17.33;54.06;96938.72;10481361;28;20086;-29
2022/12/01 05:29:39;;;;;;;1.73;1.63;;;;;;;17.32;53.62;96939.56;10472402;28;20039;-29
2022/12/01 05:34:40;;;;;;;1.73;1.53;;;;;;;17.26;54.13;96936.97;10489511;28;20056;-31
2022/12/01 05:39:40;;;;;;;2.03;1.83;;;;;;;17.26;53.56;96939.50;10483134;28;20302;-29
2022/12/01 05:44:40;;;;;;;2.53;2.20;;;;;;;17.04;53.09;96918.22;10483492;28;20314;-29
2022/12/01 05:49:41;;;;;;;3.57;2.40;;;;;;;17.21;53.07;96931.88;10481611;28;20330;-30
2022/12/01 05:54:41;;;;;;;3.33;2.53;;;;;;;17.18;52.96;96946.19;10474079;28;20029;-28
2022/12/01 05:59:41;;;;;;;3.47;2.47;;;;;;;17.10;53.53;96938.53;10491710;28;20063;-28
2022/12/01 06:04:42;;;;;;;3.20;2.70;;;;;;;17.24;53.92;96946.22;10488466;28;20385;-29
2022/12/01 06:09:45;;;;;;;7.82;3.78;;;;;;;17.27;55.03;96951.31;10487029;28;20090;-29
2022/12/01 06:14:45;;;;;;;5.30;4.22;;;;;;;17.22;54.26;96960.53;10477903;28;20028;-29
2022/12/01 06:19:46;;;;;;;5.83;4.03;;;;;;;17.23;55.01;96958.03;10486377;28;20500;-29
2022/12/01 06:24:47;;;;;;;6.40;3.88;;;;;;;17.21;54.85;96961.38;10477506;28;20044;-29
2022/12/01 06:29:48;;;;;;;10.40;4.63;;;;;;;17.11;54.38;96959.59;10482941;28;20477;-30
2022/12/01 06:34:48;;;;;;;15.38;5.20;;;;;;;17.00;52.19;96968.78;10471122;28;20029;-29
2022/12/01 06:39:49;;;;;;;6.53;4.70;;;;;;;17.06;54.24;96966.31;10479336;28;20443;-29
2022/12/01 06:44:49;;;;;;;10.73;4.50;;;;;;;17.02;53.20;96959.50;10480380;28;20035;-29
2022/12/01 06:49:49;;;;;;;10.37;4.50;;;;;;;17.07;54.44;96971.38;10477268;28;20040;-28
2022/12/01 06:54:50;;;;;;;16.67;4.77;;;;;;;17.07;54.43;96970.53;10484324;28;20316;-30
2022/12/01 06:59:50;;;;;;;10.23;4.53;;;;;;;17.06;54.35;96981.50;10478780;28;20511;-29
2022/12/01 07:04:50;;;;;;;25.27;5.53;;;;;;;17.05;54.40;96985.69;10485184;28;20290;-29
2022/12/01 07:09:51;;;;;;;11.70;3.90;;;;;;;17.13;53.38;96988.28;10483963;28;20042;-29
2022/12/01 07:14:51;;;;;;;8.43;4.33;;;;;;;17.13;53.81;96985.75;10482231;28;20029;-29
2022/12/01 07:19:51;;;;;;;6.43;4.30;;;;;;;17.16;55.19;96998.44;10479929;28;20439;-28
2022/12/01 07:24:52;;;;;;;7.33;4.30;;;;;;;17.19;53.44;96994.25;10486572;28;20033;-29
2022/12/01 07:29:52;;;;;;;4.83;3.80;;;;;;;17.14;53.20;96995.88;10472147;28;20092;-29
2022/12/01 07:34:52;;;;;;;5.53;4.23;;;;;;;17.10;53.56;96998.38;10475436;28;20067;-31
2022/12/01 07:39:53;;;;;;;5.90;4.10;;;;;;;17.13;53.31;97004.31;10483061;28;20028;-29
2022/12/01 07:44:53;;;;;;;6.20;4.20;;;;;;;17.13;53.14;97011.03;10482815;28;20279;-30
2022/12/01 07:49:54;;;;;;;5.23;3.83;;;;;;;17.14;53.23;97017.84;10474753;28;20040;-29
2022/12/01 07:54:54;;;;;;;6.75;3.95;;;;;;;17.17;53.16;97027.97;10474734;28;20031;-29
2022/12/01 07:59:55;;;;;;;5.90;4.80;;;;;;;17.17;52.20;97033.03;10473972;28;20104;-28
2022/12/01 08:04:55;;;;;;;5.77;4.27;;;;;;;17.07;52.22;97023.66;10472327;28;20040;-31
2022/12/01 08:09:55;;;;;;;6.00;3.80;;;;;;;17.09;53.93;97032.09;10472502;28;20385;-29
2022/12/01 08:14:56;;;;;;;6.73;4.87;;;;;;;17.04;53.59;97023.59;10472097;28;20293;-29
2022/12/01 08:19:56;;;;;;;6.60;4.70;;;;;;;17.10;54.24;97033.78;10480950;28;20044;-29
2022/12/01 08:24:56;;;;;;;4.67;4.27;;;;;;;17.12;54.02;97037.19;10468365;28;20043;-30
2022/12/01 08:29:57;;;;;;;6.95;4.25;;;;;;;17.13;54.07;97038.88;10481018;28;20044;-30
2022/12/01 08:34:57;;;;;;;5.83;4.80;;;;;;;17.18;53.62;97049.91;10494362;28;20557;-29
2022/12/01 08:39:57;;;;;;;6.17;5.57;;;;;;;17.08;53.73;97040.53;10481884;28;20046;-29
2022/12/01 08:44:58;;;;;;;8.20;5.43;;;;;;;17.12;53.19;97040.56;10478074;28;20037;-29
2022/12/01 08:49:58;;;;;;;6.57;5.43;;;;;;;17.11;53.48;97045.59;10486784;28;20496;-30
2022/12/01 08:54:59;;;;;;;5.53;4.57;;;;;;;17.10;54.02;97038.84;10488722;28;20508;-29
2022/12/01 09:00:00;;;;;;;7.13;4.63;;;;;;;17.06;53.72;97048.09;10482500;28;20479;-29
2022/12/01 09:05:00;;;;;;;6.30;4.53;;;;;;;17.05;53.26;97051.44;10479326;28;20039;-29
2022/12/01 09:10:01;;;;;;;12.67;4.40;;;;;;;17.02;53.24;97048.03;10487112;28;20492;-29
2022/12/01 09:15:01;;;;;;;7.63;4.78;;;;;;;17.01;54.61;97048.88;10479815;28;20036;-29
2022/12/01 09:20:02;;;;;;;6.78;4.63;;;;;;;17.02;54.10;97058.16;10481350;28;20614;-29
2022/12/01 09:25:03;;;;;;;6.57;4.25;;;;;;;16.98;54.63;97056.44;10477084;28;20032;-29
2022/12/01 09:30:04;;;;;;;9.02;4.47;;;;;;;16.93;54.29;97045.41;10490904;28;20502;-29
2022/12/01 09:35:04;;;;;;;7.03;4.43;;;;;;;16.97;54.13;97060.63;10474270;28;20358;-29
2022/12/01 09:40:05;;;;;;;7.93;4.63;;;;;;;17.03;54.10;97063.25;10492481;28;20040;-29
2022/12/01 09:45:10;;;;;;;7.43;5.32;;;;;;;17.01;55.06;97064.91;10482942;28;20643;-29
2022/12/01 09:50:24;;;;;;;6.03;4.20;;;;;;;16.94;55.03;97042.91;10475080;28;20037;-29
2022/12/01 09:55:25;;;;;;;6.68;4.32;;;;;;;16.99;54.89;97055.59;10507357;28;20035;-29
2022/12/01 10:00:30;;;;;;;5.55;4.32;;;;;;;16.94;54.77;97049.63;10485066;28;20036;-29
2022/12/01 10:05:47;;;;;;;5.53;4.82;;;;;;;16.97;54.66;97052.19;10476772;28;20025;-29
2022/12/01 10:10:51;;;;;;;6.88;4.28;;;;;;;16.95;55.24;97047.13;10497335;28;20044;-29
2022/12/01 10:16:01;;;;;;;6.72;4.80;;;;;;;16.94;54.58;97037.84;10479828;28;20548;-29
2022/12/01 10:21:13;;;;;;;9.63;5.28;;;;;;;16.96;54.89;97040.38;10487921;28;20098;-29
2022/12/01 10:26:17;;;;;;;4.57;4.10;;;;;;;17.00;53.97;97037.06;10484179;28;20068;-29
2022/12/01 10:31:19;;;;;;;5.10;4.57;;;;;;;16.96;53.88;97023.53;10481251;28;20037;-29
2022/12/01 10:36:21;;;;;;;7.55;4.57;;;;;;;17.03;53.64;97029.50;10478917;28;20044;-29
2022/12/01 10:41:24;;;;;;;7.13;4.30;;;;;;;17.05;53.66;97025.28;10488525;28;20055;-30
2022/12/01 10:46:31;;;;;;;7.57;4.70;;;;;;;17.10;53.20;97023.69;10483740;28;20162;-30
2022/12/01 10:51:45;;;;;;;6.95;4.18;;;;;;;17.06;53.18;97006.78;10479538;28;20056;-29
2022/12/01 10:56:48;;;;;;;4.95;4.20;;;;;;;17.13;52.59;97008.53;10482316;28;20082;-30
2022/12/01 11:01:49;;;;;;;8.13;5.05;;;;;;;17.11;52.79;97005.13;10483034;28;20332;-29
2022/12/01 11:06:50;;;;;;;6.78;4.60;;;;;;;17.10;53.20;97003.44;10480138;28;20420;-29
2022/12/01 11:11:59;;;;;;;6.53;5.22;;;;;;;17.02;53.14;97010.09;10477617;28;20154;-29
2022/12/01 11:17:15;;;;;;;10.85;7.95;;;;;;;17.07;52.92;96999.19;10481602;28;20040;-29
2022/12/01 11:22:24;;;;;;;14.38;9.63;;;;;;;17.08;51.73;96995.00;10479957;28;20110;-29
2022/12/01 11:27:31;;;;;;;13.48;9.88;;;;;;;17.12;52.62;97000.09;10481640;28;20059;-30
2022/12/01 11:32:33;;;;;;;;;;;;;;;17.16;52.07;96993.38;10478608;28;20043;-30
2022/12/01 11:37:37;;;;;;;14.02;10.52;;;;;;;17.14;52.59;96987.47;10486825;28;19916;-29
2022/12/01 11:42:40;;;;;;;15.45;11.23;;;;;;;16.94;51.13;96978.81;10482183;28;20059;-29
2022/12/01 11:48:07;;;;;;;23.13;12.10;;;;;;;16.92;51.46;96986.38;10483222;28;20142;-29
2022/12/01 11:53:29;;;;;;;19.65;13.73;;;;;;;17.06;52.30;96997.50;10478668;28;20090;-29
2022/12/01 11:58:29;;;;;;;18.23;12.60;;;;;;;17.10;52.96;96985.72;10478216;28;20052;-29
2022/12/01 12:03:41;;;;;;;24.20;13.00;;;;;;;17.16;53.05;96985.78;10474605;28;20251;-31
2022/12/01 12:09:20;;;;;;;16.38;12.88;;;;;;;17.09;52.59;96976.44;10470987;28;20044;-29
2022/12/01 12:14:46;;;;;;;23.48;12.45;;;;;;;17.22;53.52;96983.31;10450190;28;20145;-29
2022/12/01 12:20:19;;;;;;;20.95;13.40;;;;;;;17.24;52.40;96981.66;10475138;28;20041;-29
2022/12/01 12:25:29;;;;;;;21.63;12.23;;;;;;;17.21;53.59;96979.06;10473997;28;20476;-29
2022/12/01 12:30:35;;;;;;;19.48;11.68;;;;;;;17.15;51.64;96972.28;10480077;28;20393;-30
2022/12/01 12:35:38;;;;;;;21.25;10.93;;;;;;;17.04;50.86;96975.53;10478790;28;20037;-29
2022/12/01 12:41:17;;;;;;;17.85;11.32;;;;;;;17.13;52.48;96968.03;10472625;28;20090;-29
2022/12/01 12:46:54;;;;;;;15.95;11.05;;;;;;;17.13;52.66;96965.50;10421096;28;20136;-30
2022/12/01 12:52:03;;;;;;;15.60;10.90;;;;;;;17.11;52.21;96963.00;10481420;28;20503;-29
2022/12/01 12:57:07;;;;;;;17.85;10.82;;;;;;;17.15;52.52;96958.81;10478353;28;20612;-29
2022/12/01 13:02:33;;;;;;;16.55;10.57;;;;;;;17.13;53.13;96956.25;10473656;28;20037;-29
2022/12/01 13:07:41;;;;;;;20.15;10.13;;;;;;;17.10;52.74;96947.78;10471308;28;20227;-30
2022/12/01 13:12:49;;;;;;;15.00;10.32;;;;;;;17.09;53.24;96948.63;10476655;28;20086;-29
2022/12/01 13:18:02;;;;;;;16.92;10.00;;;;;;;17.14;53.07;96959.66;10476509;28;20507;-29
2022/12/01 13:23:02;;;;;;;15.27;9.30;;;;;;;17.11;53.35;96954.53;10467772;28;20064;-29
2022/12/01 13:28:12;;;;;;;12.80;9.00;;;;;;;17.13;53.02;96950.34;10479189;28;20124;-29
2022/12/01 13:33:15;;;;;;;12.18;8.20;;;;;;;17.11;52.88;96949.47;10485161;28;20033;-30
2022/12/01 13:38:33;;;;;;;13.68;9.10;;;;;;;17.11;53.15;96940.22;10476554;28;20032;-29
2022/12/01 13:43:35;;;;;;;12.80;9.00;;;;;;;17.06;53.52;96941.03;10486991;28;20551;-29
2022/12/01 13:48:36;;;;;;;11.93;7.72;;;;;;;17.09;52.97;96954.50;10479130;28;20114;-30
2022/12/01 13:53:38;;;;;;;12.07;8.02;;;;;;;17.11;52.69;96952.00;10490464;28;20079;-29
2022/12/01 13:58:42;;;;;;;10.77;7.82;;;;;;;17.08;53.24;96949.47;10483617;28;20032;-29
2022/12/01 14:03:52;;;;;;;10.10;7.50;;;;;;;17.07;53.01;96950.31;10476442;28;20408;-29
2022/12/01 14:09:01;;;;;;;10.80;7.63;;;;;;;17.08;53.19;96949.47;10480605;28;20527;-29
2022/12/01 14:14:10;;;;;;;11.30;7.47;;;;;;;17.08;53.42;96950.28;10484440;28;20044;-29
2022/12/01 14:19:51;;;;;;;10.60;7.63;;;;;;;17.01;52.92;96940.97;10475401;28;20032;-29
2022/12/01 14:24:52;;;;;;;11.35;7.65;;;;;;;17.04;52.43;96940.13;10470701;28;20078;-29
2022/12/01 14:29:52;;;;;;;11.35;7.80;;;;;;;17.10;53.58;96952.84;10488189;28;20056;-29
2022/12/01 14:34:54;;;;;;;9.93;7.15;;;;;;;17.08;53.67;96941.88;10482368;28;20039;-29
2022/12/01 14:40:06;;;;;;;10.18;6.97;;;;;;;17.10;53.24;96940.19;10477117;28;20133;-29
2022/12/01 14:45:12;;;;;;;8.75;7.10;;;;;;;16.99;53.53;96934.19;10476482;28;20036;-29
2022/12/01 14:50:21;;;;;;;6.75;6.05;;;;;;;17.08;53.41;96957.06;10488286;28;20040;-29
2022/12/01 14:55:26;;;;;;;7.95;6.70;;;;;;;17.07;53.15;96948.59;10483198;28;20032;-29
2022/12/01 15:00:27;;;;;;;7.78;6.47;;;;;;;17.04;53.45;96952.78;10479510;28;20408;-29
2022/12/01 15:05:30;;;;;;;10.07;6.93;;;;;;;17.01;53.40;96957.81;10480980;28;20071;-28
2022/12/01 15:10:35;;;;;;;7.63;6.35;;;;;;;17.04;53.10;96963.75;10470325;28;20287;-29
2022/12/01 15:15:36;;;;;;;7.78;6.13;;;;;;;17.08;53.06;96969.69;10482071;28;20503;-29
2022/12/01 15:20:37;;;;;;;9.52;6.20;;;;;;;17.04;53.62;96967.97;10480411;28;20032;-30
2022/12/01 15:25:42;;;;;;;8.30;5.55;;;;;;;17.05;52.98;96972.19;10471997;28;20036;-30
2022/12/01 15:30:46;;;;;;;8.25;6.40;;;;;;;17.03;54.06;96981.44;10482554;28;20056;-29
2022/12/01 15:35:48;;;;;;;7.20;5.50;;;;;;;17.05;53.67;96970.50;10478754;28;20488;-30
2022/12/01 15:40:50;;;;;;;7.15;5.88;;;;;;;17.07;54.08;96975.59;10477346;28;20060;-29
2022/12/01 15:45:56;;;;;;;6.95;5.90;;;;;;;17.09;53.76;96979.81;10478274;28;20097;-29
2022/12/01 15:51:01;;;;;;;8.10;6.03;;;;;;;17.10;52.74;96978.16;10483953;28;20028;-29
2022/12/01 15:56:06;;;;;;;7.00;5.80;;;;;;;17.10;52.98;96979.00;10467354;28;20036;-29
2022/12/01 16:01:16;;;;;;;7.80;6.32;;;;;;;17.09;53.58;96967.16;10475617;28;20041;-29
2022/12/01 16:06:19;;;;;;;7.40;5.80;;;;;;;17.08;53.78;96970.53;10477688;28;20043;-29
2022/12/01 16:11:20;;;;;;;8.02;6.00;;;;;;;17.09;53.14;96971.38;10480038;28;20032;-29
2022/12/01 16:16:30;;;;;;;7.15;5.38;;;;;;;17.09;53.69;96971.38;10472783;28;20404;-30
2022/12/01 16:21:40;;;;;;;7.43;5.88;;;;;;;17.11;53.39;96974.78;10481047;28;20040;-30
2022/12/01 16:26:47;;;;;;;8.50;5.38;;;;;;;17.07;53.74;96968.84;10471885;28;20048;-29
2022/12/01 16:31:49;;;;;;;8.48;5.93;;;;;;;17.09;53.96;96971.38;10463933;28;20025;-29
2022/12/01 16:36:50;;;;;;;6.00;5.25;;;;;;;17.03;53.02;96951.94;10479496;28;20033;-28
2022/12/01 16:41:52;;;;;;;6.88;5.65;;;;;;;17.01;53.83;96958.69;10486069;28;20040;-29
2022/12/01 16:46:53;;;;;;;5.80;5.20;;;;;;;17.12;52.58;96972.28;10477423;28;20037;-29
2022/12/01 16:51:53;;;;;;;6.67;5.33;;;;;;;17.19;53.15;96966.44;10482471;28;20028;-30
2022/12/01 16:56:53;;;;;;;9.10;5.53;;;;;;;17.21;53.85;96969.81;10469166;28;20283;-29
2022/12/01 17:01:54;;;;;;;6.53;5.00;;;;;;;17.19;52.77;96975.69;10492457;28;20399;-29
2022/12/01 17:06:54;;;;;;;6.53;5.80;;;;;;;17.16;52.76;96981.56;10489889;28;20408;-29
2022/12/01 17:11:56;;;;;;;7.73;5.63;;;;;;;17.16;52.62;96976.50;10480642;28;20270;-29
2022/12/01 17:16:56;;;;;;;5.93;5.32;;;;;;;17.15;52.64;96972.28;10489773;28;20036;-30
2022/12/01 17:21:57;;;;;;;12.10;6.40;;;;;;;16.92;51.39;96968.69;10476679;28;20049;-29
2022/12/01 17:26:57;;;;;;;12.57;6.70;;;;;;;17.02;53.03;96974.69;10488506;28;20307;-29
2022/12/01 17:31:57;;;;;;;10.23;6.68;;;;;;;17.03;52.64;96976.38;10482504;28;20029;-29
2022/12/01 17:36:58;;;;;;;8.00;5.40;;;;;;;17.10;53.10;96978.16;10489214;28;20498;-29
2022/12/01 17:41:58;;;;;;;10.83;6.47;;;;;;;17.09;53.05;96982.34;10477131;28;20549;-29
2022/12/01 17:46:58;;;;;;;7.27;6.40;;;;;;;17.08;53.47;96978.13;10486439;28;20314;-29
2022/12/01 17:51:59;;;;;;;8.73;6.83;;;;;;;17.11;52.82;96985.75;10476812;28;20037;-29
2022/12/01 17:56:59;;;;;;;8.67;6.83;;;;;;;17.07;54.85;96988.25;10487605;28;20047;-29
2022/12/01 18:01:59;;;;;;;9.37;6.63;;;;;;;17.08;54.12;96984.88;10476118;28;20033;-30
2022/12/01 18:07:00;;;;;;;11.50;7.50;;;;;;;17.15;54.04;96989.16;10476659;28;20299;-29
2022/12/01 18:12:00;;;;;;;10.15;6.85;;;;;;;17.09;54.00;96991.63;10481264;28;20092;-29
2022/12/01 18:17:04;;;;;;;10.20;6.40;;;;;;;17.04;55.38;96998.31;10478283;28;20031;-29
2022/12/01 18:22:04;;;;;;;9.35;7.03;;;;;;;17.01;52.63;96995.75;10481634;28;20036;-30
2022/12/01 18:27:05;;;;;;;8.23;6.80;;;;;;;17.15;52.88;97006.88;10482102;28;20043;-29
2022/12/01 18:32:05;;;;;;;8.07;6.50;;;;;;;17.23;52.19;96997.69;10481322;28;20044;-29
2022/12/01 18:37:06;;;;;;;9.55;6.93;;;;;;;17.21;52.60;96992.59;10463846;28;20295;-29
2022/12/01 18:42:06;;;;;;;9.57;6.53;;;;;;;17.18;52.44;96986.66;10497611;28;20119;-29
2022/12/01 18:47:07;;;;;;;9.20;7.53;;;;;;;17.12;52.32;96986.59;10485670;28;20154;-30
2022/12/01 18:52:08;;;;;;;8.07;6.95;;;;;;;17.07;52.35;96988.25;10489159;28;20389;-29
2022/12/01 18:57:08;;;;;;;9.07;6.63;;;;;;;17.02;52.53;96989.88;10475770;28;20551;-30
2022/12/01 19:02:09;;;;;;;8.50;7.03;;;;;;;17.01;51.41;96983.13;10477057;28;20356;-29
2022/12/01 19:07:09;;;;;;;11.27;7.10;;;;;;;16.99;52.77;96984.78;10481512;28;20396;-30
2022/12/01 19:12:09;;;;;;;9.00;7.33;;;;;;;16.95;52.93;96978.00;10479168;28;20409;-31
2022/12/01 19:17:10;;;;;;;10.10;7.33;;;;;;;17.07;50.91;96978.13;10479146;28;20557;-29
2022/12/01 19:22:10;;;;;;;7.37;6.50;;;;;;;17.12;51.03;96971.41;10483295;28;20348;-29
2022/12/01 19:27:10;;;;;;;8.60;6.87;;;;;;;17.08;51.05;96974.75;10480375;28;20708;-28
2022/12/01 19:32:11;;;;;;;9.80;8.27;;;;;;;16.98;51.18;96967.91;10484181;28;20772;-29
2022/12/01 19:37:12;;;;;;;10.00;6.90;;;;;;;17.03;50.53;96973.84;10475040;28;20040;-28
2022/12/01 19:42:12;;;;;;;7.80;6.18;;;;;;;17.05;51.22;96978.09;10484272;28;20029;-29
2022/12/01 19:47:13;;;;;;;8.05;6.80;;;;;;;17.01;51.14;96978.06;10479595;28;20120;-29
2022/12/01 19:52:13;;;;;;;10.77;7.43;;;;;;;17.03;50.71;96978.91;10479646;28;20037;-29
2022/12/01 19:57:13;;;;;;;9.73;7.30;;;;;;;17.06;50.82;96986.56;10480274;28;20032;-30
2022/12/01 20:02:14;;;;;;;8.52;6.72;;;;;;;17.09;50.24;96986.56;10469195;28;20036;-29
2022/12/01 20:07:14;;;;;;;9.98;6.97;;;;;;;17.11;50.12;96987.44;10468092;28;20441;-29
2022/12/01 20:12:15;;;;;;;7.88;6.30;;;;;;;17.04;51.06;96989.06;10478714;28;20043;-29
2022/12/01 20:17:15;;;;;;;9.43;7.32;;;;;;;17.05;51.22;96994.94;10477308;28;20143;-29
2022/12/01 20:22:15;;;;;;;9.13;7.17;;;;;;;17.08;50.48;96995.00;10480998;28;20040;-29
2022/12/01 20:27:16;;;;;;;10.03;6.53;;;;;;;17.06;51.10;96996.66;10475410;28;20040;-29
2022/12/01 20:32:16;;;;;;;8.90;7.40;;;;;;;17.06;51.06;96999.19;10477024;28;20403;-29
2022/12/01 20:37:17;;;;;;;8.60;6.90;;;;;;;17.11;51.21;96995.00;10488186;28;20443;-29
2022/12/01 20:42:21;;;;;;;7.00;6.07;;;;;;;17.13;50.35;97003.47;10487807;28;20759;-29
2022/12/01 20:47:21;;;;;;;8.13;6.88;;;;;;;17.08;51.11;96989.94;10488545;28;20074;-28
2022/12/01 20:52:21;;;;;;;7.53;6.30;;;;;;;17.05;50.95;96989.88;10484779;28;20046;-29
2022/12/01 20:57:22;;;;;;;7.80;7.00;;;;;;;17.06;50.90;96981.50;10487844;28;20274;-29
2022/12/01 21:02:22;;;;;;;9.33;7.23;;;;;;;17.01;51.18;96985.66;10472069;28;20064;-29
2022/12/01 21:07:22;;;;;;;9.33;7.50;;;;;;;17.07;50.77;96976.44;10501210;28;20037;-29
2022/12/01 21:17:47;;;;;;;9.18;7.53;;;;;;;17.12;49.93;96966.34;10468851;28;20041;-29
2022/12/01 21:22:52;;;;;;;9.82;6.90;;;;;;;17.10;49.84;96957.91;10491387;28;20032;-29
2022/12/01 21:27:58;;;;;;;9.38;7.07;;;;;;;17.06;50.13;96962.09;10484814;28;20305;-29
2022/12/01 21:33:19;;;;;;;8.70;7.10;;;;;;;17.12;50.04;96961.28;10496606;28;20548;-28
2022/12/01 21:38:20;;;;;;;7.68;6.15;;;;;;;17.15;51.02;96961.34;10488128;28;20058;-29
2022/12/01 21:43:23;;;;;;;8.07;6.43;;;;;;;17.13;50.49;96955.38;10484501;28;20103;-29
2022/12/01 21:48:23;;;;;;;8.73;6.85;;;;;;;17.09;50.60;96956.22;10479994;28;20036;-29
2022/12/01 21:53:30;;;;;;;7.95;6.85;;;;;;;17.06;50.88;96956.19;10474379;28;20032;-28
2022/12/01 21:58:34;;;;;;;8.18;7.03;;;;;;;17.04;51.00;96962.91;10489754;28;20545;-30
2022/12/01 22:03:46;;;;;;;8.10;6.35;;;;;;;17.03;50.66;96961.22;10482464;28;20051;-30
2022/12/01 22:08:53;;;;;;;6.63;5.82;;;;;;;17.02;50.99;96962.91;10479984;28;20036;-30
2022/12/01 22:14:17;;;;;;;7.63;6.80;;;;;;;16.98;51.34;96952.75;10482857;28;20089;-30
2022/12/01 22:19:28;;;;;;;8.38;7.20;;;;;;;16.96;51.23;96954.38;10484840;28;20036;-29
2022/12/01 22:24:55;;;;;;;6.20;5.60;;;;;;;16.95;51.60;96950.16;10473054;28;20423;-29
2022/12/01 22:29:57;;;;;;;8.30;6.27;;;;;;;16.93;51.59;96960.28;10471734;28;20048;-29
2022/12/01 22:35:17;;;;;;;7.60;6.30;;;;;;;16.96;50.98;96954.38;10480248;28;20318;-29
2022/12/01 22:40:36;;;;;;;8.82;6.53;;;;;;;16.93;51.59;96965.34;10478581;28;20492;-29
2022/12/01 22:45:37;;;;;;;7.55;6.85;;;;;;;16.99;51.11;96962.03;10484480;28;20127;-29
2022/12/01 22:50:38;;;;;;;7.55;6.45;;;;;;;16.99;51.56;96965.38;10482004;28;20047;-29
2022/12/01 22:55:38;;;;;;;7.85;6.47;;;;;;;16.98;51.49;96962.88;10476246;28;20025;-29
2022/12/01 23:00:39;;;;;;;8.05;6.75;;;;;;;16.91;51.61;96945.94;10478514;28;20037;-29
2022/12/01 23:05:40;;;;;;;7.40;6.45;;;;;;;16.93;51.78;96951.84;10480846;28;20033;-28
2022/12/01 23:10:41;;;;;;;8.25;6.95;;;;;;;16.94;51.42;96946.81;10482493;28;20098;-30
2022/12/01 23:15:46;;;;;;;7.57;6.78;;;;;;;17.01;50.19;96932.53;10483520;28;20031;-29
2022/12/01 23:20:49;;;;;;;9.00;7.25;;;;;;;17.00;50.30;96941.78;10479476;28;20032;-29
2022/12/01 23:25:50;;;;;;;9.25;7.25;;;;;;;16.99;51.37;96945.16;10480412;28;20040;-29
2022/12/01 23:30:54;;;;;;;8.68;6.60;;;;;;;16.96;50.49;96931.63;10480060;28;20041;-28
2022/12/01 23:36:01;;;;;;;7.70;6.88;;;;;;;17.02;50.56;96935.09;10488505;28;20029;-29
2022/12/01 23:41:05;;;;;;;7.68;6.68;;;;;;;17.01;51.34;96927.47;10476997;28;20060;-29
2022/12/01 23:46:10;;;;;;;9.27;7.18;;;;;;;17.00;50.89;96925.78;10480854;28;20036;-29